Weather at Kbely Air Base

Public forecast

Using degrees Celsius for public forecast. Weather courtesy of forecast.io.

Current aviation weather report (METAR) for Kbely Air Base

2024/02/23 18:00 (retrieved 23 minutes ago)

LKKB 231800Z 29003KT CAVOK 07/M00 Q1000 NOSIG

Aviation forecast (TAF) for Kbely Air Base

2024/02/23 18:00 (retrieved 23 minutes ago)

TAF LKKB 231700Z 2318/2418 26008KT CAVOK BECMG 2318/2320 22004KT BKN030 TEMPO 2319/2405 VRB02KT 7000 RA SCT012 BKN020 PROB30 TEMPO 2319/2405 VRB02KT 4000 RA BR BKN015 BECMG 2404/2406 23008KT CAVOK TEMPO 2406/2415 22012KT SCT030